Time;durP1;ratioP1;P1;durP2;ratioP2;P2;SDS_P1;SDS_P2;PMS_P1;PMS_P2;Temp;Humidity;BMP_temperature;BMP_pressure;BME280_temperature;BME280_humidity;BME280_pressure;Samples;Min_cycle;Max_cycle;Signal;HPM_P1;HPM_P2
2024/04/19 00:03:42;;;;;;;15.90;8.00;;;;;;;1.57;77.62;98225.27;435340;1253;113423;-40
2024/04/19 00:13:47;;;;;;;11.70;6.60;;;;;;;1.57;77.76;98225.31;435173;1253;108277;-40
2024/04/19 00:23:52;;;;;;;13.10;7.20;;;;;;;1.58;77.88;98214.45;435434;1253;100569;-40
2024/04/19 00:33:58;;;;;;;14.30;8.40;;;;;;;1.45;77.98;98211.30;435355;1250;109706;-40
2024/04/19 00:44:03;;;;;;;11.60;8.20;;;;;;;1.25;77.98;98209.93;435514;1253;99275;-44
2024/04/19 00:54:08;;;;;;;11.30;7.70;;;;;;;1.06;78.31;98210.27;435497;1253;112843;-40
2024/04/19 01:04:15;;;;;;;8.50;6.80;;;;;;;0.99;78.41;98208.58;435218;1253;109096;-41
2024/04/19 01:14:19;;;;;;;8.20;6.10;;;;;;;1.00;78.61;98204.98;435390;1252;100626;-41
2024/04/19 01:24:37;;;;;;;6.90;5.40;;;;;;;1.10;78.87;98206.19;436882;1247;108614;-41
2024/04/19 01:34:42;;;;;;;12.60;7.00;;;;;;;1.13;79.08;98201.28;436248;1251;101067;-40
2024/04/19 01:44:47;;;;;;;12.20;6.60;;;;;;;1.11;79.25;98198.05;436535;1251;113513;-41
2024/04/19 01:54:51;;;;;;;13.10;7.30;;;;;;;0.94;79.16;98196.08;436419;1248;108137;-39
2024/04/19 02:04:58;;;;;;;9.00;6.60;;;;;;;0.75;79.05;98191.77;436452;1253;100561;-41
2024/04/19 02:15:03;;;;;;;9.30;6.40;;;;;;;0.69;79.05;98183.91;436321;1251;108647;-41
2024/04/19 02:25:08;;;;;;;10.50;6.70;;;;;;;0.65;79.09;98179.42;436321;1251;99878;-44
2024/04/19 02:35:13;;;;;;;13.30;8.50;;;;;;;0.58;79.43;98174.19;436911;1247;112656;-39
2024/04/19 02:45:17;;;;;;;13.50;9.00;;;;;;;0.57;79.51;98168.25;436360;1253;107482;-41
2024/04/19 02:55:22;;;;;;;14.40;8.00;;;;;;;0.58;79.71;98146.97;436427;1253;99413;-40
2024/04/19 03:05:27;;;;;;;16.10;9.80;;;;;;;0.60;79.80;98145.27;436332;1250;108454;-40
2024/04/19 03:15:31;;;;;;;15.50;10.30;;;;;;;0.57;80.00;98136.42;436518;1247;100613;-40
2024/04/19 03:25:39;;;;;;;16.70;10.10;;;;;;;0.96;80.66;98142.44;436291;1253;112634;-39
2024/04/19 03:35:44;;;;;;;18.20;12.30;;;;;;;1.04;80.66;98124.48;436559;1251;108606;-39
2024/04/19 03:45:49;;;;;;;18.80;12.70;;;;;;;1.07;80.86;98128.57;436468;1253;99365;-41
2024/04/19 03:55:54;;;;;;;19.60;14.20;;;;;;;1.03;81.08;98117.63;436474;1247;108639;-41
2024/04/19 04:06:23;;;;;;;20.60;14.80;;;;;;;1.18;81.17;98102.46;436535;1247;99281;-40
2024/04/19 04:16:28;;;;;;;16.50;12.30;;;;;;;1.33;81.02;98099.14;436379;1252;113630;-40
2024/04/19 04:26:33;;;;;;;18.30;13.30;;;;;;;1.56;80.97;98100.15;436241;1252;108729;-46
2024/04/19 04:36:37;;;;;;;28.80;15.40;;;;;;;1.79;81.11;98091.55;436369;1247;102844;-41
2024/04/19 04:46:42;;;;;;;26.50;16.90;;;;;;;1.92;81.18;98084.54;436362;1247;108530;-41
2024/04/19 04:56:46;;;;;;;33.00;17.10;;;;;;;2.27;81.62;98079.91;436499;1261;99631;-39
2024/04/19 05:06:52;;;;;;;27.90;15.60;;;;;;;3.89;82.29;98084.45;436463;1253;113530;-40
2024/04/19 05:16:57;;;;;;;25.90;13.90;;;;;;;5.57;81.47;98083.65;436540;1252;107667;-40
2024/04/19 05:27:02;;;;;;;23.40;14.00;;;;;;;6.74;80.73;98075.16;436352;1253;100597;-41
2024/04/19 05:37:07;;;;;;;15.80;10.00;;;;;;;7.20;79.58;98076.05;436393;1253;108303;-40
2024/04/19 05:47:13;;;;;;;15.40;8.70;;;;;;;7.84;79.02;98065.34;436141;1251;421171;-40
2024/04/19 05:57:18;;;;;;;12.60;8.50;;;;;;;8.79;77.85;98051.95;436439;1253;113594;-41
2024/04/19 06:07:23;;;;;;;13.30;6.70;;;;;;;9.20;75.48;98039.27;436412;1254;108682;-41
2024/04/19 06:17:28;;;;;;;12.30;7.30;;;;;;;9.24;73.64;98026.96;436254;1253;99952;-41
2024/04/19 06:27:33;;;;;;;14.50;8.10;;;;;;;9.33;71.90;98030.67;436253;1253;108615;-41
2024/04/19 06:37:38;;;;;;;9.40;6.20;;;;;;;9.12;70.13;98031.32;436306;1248;99757;-40
2024/04/19 06:47:43;;;;;;;8.40;6.90;;;;;;;9.83;70.34;98023.53;436451;1253;113527;-42
2024/04/19 06:57:48;;;;;;;10.70;7.70;;;;;;;10.25;68.71;98016.77;436278;1251;107602;-42
2024/04/19 07:07:54;;;;;;;10.20;6.60;;;;;;;10.28;67.65;98013.91;436139;1253;100569;-41
2024/04/19 07:18:01;;;;;;;7.80;5.00;;;;;;;10.48;65.76;98011.79;436121;1247;108680;-41
2024/04/19 07:28:06;;;;;;;10.60;6.40;;;;;;;10.20;65.23;98005.60;436334;1251;99365;-41
2024/04/19 07:38:11;;;;;;;9.80;6.00;;;;;;;9.18;65.43;98003.27;436213;1253;113505;-41
2024/04/19 07:48:18;;;;;;;11.10;6.30;;;;;;;8.73;66.24;97999.59;436301;1247;108484;-41
2024/04/19 07:58:25;;;;;;;13.50;8.90;;;;;;;8.11;66.33;98004.19;436525;1247;99342;-41
2024/04/19 08:08:33;;;;;;;7.90;5.60;;;;;;;7.79;67.35;97991.85;436352;1253;108472;-40
2024/04/19 08:18:37;;;;;;;8.20;5.50;;;;;;;8.23;67.82;97982.02;436372;1254;100568;-39
2024/04/19 08:28:42;;;;;;;10.60;6.00;;;;;;;8.06;67.86;97973.79;436697;1254;113463;-41
2024/04/19 08:38:48;;;;;;;9.10;5.00;;;;;;;7.78;68.25;97964.21;436551;1253;108285;-41
2024/04/19 08:48:54;;;;;;;6.90;3.70;;;;;;;8.10;68.56;97954.55;436967;1252;101049;-42
2024/04/19 08:59:00;;;;;;;5.80;3.70;;;;;;;8.57;68.85;97937.27;436358;1262;108763;-43
2024/04/19 09:09:06;;;;;;;4.60;3.20;;;;;;;9.64;68.92;97910.77;436806;1254;99375;-40
2024/04/19 09:19:11;;;;;;;6.00;3.70;;;;;;;10.31;67.41;97889.19;436470;1261;113708;-40
2024/04/19 09:29:16;;;;;;;3.60;2.60;;;;;;;10.54;66.08;97875.51;436447;1261;108337;-42
2024/04/19 09:39:21;;;;;;;4.90;3.20;;;;;;;9.92;65.48;97867.74;436507;1254;100706;-41
2024/04/19 09:49:30;;;;;;;5.50;3.20;;;;;;;9.89;65.42;97848.79;436354;1253;108500;-41
2024/04/19 09:59:36;;;;;;;4.90;3.20;;;;;;;10.14;64.85;97823.33;436267;1254;101116;-43
2024/04/19 10:09:42;;;;;;;5.30;4.00;;;;;;;9.78;64.23;97814.31;436358;1253;113549;-41
2024/04/19 10:19:47;;;;;;;7.60;3.00;;;;;;;9.35;63.73;97822.58;436371;1251;107138;-41
2024/04/19 10:29:59;;;;;;;7.90;3.00;;;;;;;7.67;63.74;97872.34;436356;1251;101461;-43
2024/04/19 10:40:08;;;;;;;7.40;3.20;;;;;;;5.82;66.18;97900.84;436480;1248;108403;-39
2024/04/19 10:50:14;;;;;;;9.50;5.10;;;;;;;5.01;68.06;97875.34;436742;1251;99464;-41
2024/04/19 11:00:19;;;;;;;5.10;3.90;;;;;;;5.15;69.35;97841.40;436792;1261;113669;-41
2024/04/19 11:10:26;;;;;;;9.00;5.30;;;;;;;5.49;70.36;97819.42;436618;1251;108533;-40
2024/04/19 11:20:31;;;;;;;9.20;5.10;;;;;;;5.75;71.47;97784.16;437579;1251;100451;-40
2024/04/19 11:30:39;;;;;;;5.20;3.50;;;;;;;7.04;72.58;97752.41;437156;1248;108768;-40
2024/04/19 11:40:45;;;;;;;6.80;4.00;;;;;;;8.07;72.04;97733.23;436892;1251;100655;-40
2024/04/19 11:50:49;;;;;;;4.90;3.50;;;;;;;8.53;71.58;97714.95;436691;1247;112735;-40
2024/04/19 12:00:53;;;;;;;7.70;4.10;;;;;;;8.89;71.39;97699.89;436931;1261;108869;-41
2024/04/19 12:10:58;;;;;;;5.30;3.60;;;;;;;9.18;70.93;97681.10;436294;1251;100693;-42
2024/04/19 12:21:04;;;;;;;8.30;5.20;;;;;;;9.43;70.78;97673.88;436829;1247;108544;-41
2024/04/19 12:31:09;;;;;;;8.00;5.70;;;;;;;9.82;70.40;97660.98;436251;1251;100597;-41
2024/04/19 12:41:14;;;;;;;5.20;4.20;;;;;;;9.84;69.25;97629.53;436427;1251;113939;-41
2024/04/19 12:51:23;;;;;;;6.40;4.80;;;;;;;9.88;68.39;97614.41;436334;1261;109159;-42
2024/04/19 13:01:27;;;;;;;;;;;;;;;10.07;68.41;97599.02;436362;1251;100575;-41
2024/04/19 13:11:32;;;;;;;11.10;6.50;;;;;;;10.53;68.22;97569.48;436462;1251;109158;-40
2024/04/19 13:21:37;;;;;;;7.70;4.90;;;;;;;10.90;67.41;97553.34;436302;1252;99378;-40
2024/04/19 13:31:44;;;;;;;6.10;5.40;;;;;;;10.77;66.53;97542.33;436620;1251;113105;-41
2024/04/19 13:41:49;;;;;;;9.60;6.10;;;;;;;10.58;66.44;97532.44;436418;1251;108974;-40
2024/04/19 13:51:53;;;;;;;13.50;7.60;;;;;;;10.54;66.71;97518.78;436591;1247;99330;-41
2024/04/19 14:01:59;;;;;;;15.90;8.90;;;;;;;10.46;65.86;97524.48;436558;1248;108630;-40
2024/04/19 14:12:04;;;;;;;12.50;7.70;;;;;;;9.53;64.22;97576.04;436404;1251;100450;-49
2024/04/19 14:22:10;;;;;;;14.80;8.10;;;;;;;9.04;65.00;97586.42;436462;1251;112496;-39
2024/04/19 14:32:15;;;;;;;6.70;5.90;;;;;;;8.66;65.34;97595.77;436283;1248;108606;-40
2024/04/19 14:42:20;;;;;;;6.90;5.80;;;;;;;8.59;66.33;97586.46;436060;1251;101195;-40
2024/04/19 14:52:25;;;;;;;11.60;7.50;;;;;;;8.68;67.18;97551.11;436225;1253;107560;-39
2024/04/19 15:02:30;;;;;;;13.90;8.60;;;;;;;8.64;67.76;97529.48;436253;1261;100610;-40
2024/04/19 15:12:36;;;;;;;7.10;6.20;;;;;;;8.57;68.05;97523.35;436431;1251;113313;-41
2024/04/19 15:22:44;;;;;;;7.40;5.10;;;;;;;8.44;68.22;97502.30;436350;1248;109125;-43
2024/04/19 15:32:50;;;;;;;8.80;5.60;;;;;;;8.33;68.23;97478.70;436495;1247;100575;-41
2024/04/19 15:42:54;;;;;;;7.40;5.10;;;;;;;8.33;68.31;97465.42;436435;1251;108782;-41
2024/04/19 15:52:59;;;;;;;7.20;5.00;;;;;;;8.39;67.83;97457.56;436500;1251;99939;-40
2024/04/19 16:03:08;;;;;;;13.80;7.80;;;;;;;8.33;68.06;97452.99;436434;1251;113451;-40
2024/04/19 16:13:13;;;;;;;12.80;7.40;;;;;;;8.31;68.08;97454.24;436471;1249;108615;-41
2024/04/19 16:23:17;;;;;;;6.90;5.30;;;;;;;8.28;68.29;97445.85;436425;1251;100609;-41
2024/04/19 16:33:22;;;;;;;6.10;4.90;;;;;;;8.05;68.21;97434.05;436690;1250;108736;-40
2024/04/19 16:43:27;;;;;;;6.80;4.60;;;;;;;7.81;68.27;97433.25;436398;1247;100996;-40
2024/04/19 16:53:31;;;;;;;5.30;3.80;;;;;;;7.66;68.43;97420.33;436255;1253;113497;-45
2024/04/19 17:03:37;;;;;;;10.40;5.20;;;;;;;7.32;68.81;97416.17;436318;1251;109373;-40
2024/04/19 17:13:43;;;;;;;10.70;6.30;;;;;;;7.02;69.27;97406.15;436370;1251;100543;-40
2024/04/19 17:23:51;;;;;;;8.90;6.50;;;;;;;6.73;69.78;97396.48;436405;1253;108884;-41
2024/04/19 17:33:56;;;;;;;9.20;6.70;;;;;;;6.58;70.39;97393.77;436508;1253;99530;-41
2024/04/19 17:44:01;;;;;;;15.10;9.10;;;;;;;6.48;70.80;97389.44;435966;1254;292581;-39
2024/04/19 17:54:06;;;;;;;16.70;11.20;;;;;;;6.25;71.20;97390.19;436260;1251;108529;-41
2024/04/19 18:04:11;;;;;;;18.00;10.50;;;;;;;6.04;71.84;97392.03;436397;1247;99359;-40
2024/04/19 18:14:19;;;;;;;13.20;8.20;;;;;;;6.00;72.26;97385.27;436393;1251;107681;-40
2024/04/19 18:24:48;;;;;;;23.00;12.10;;;;;;;6.03;72.60;97379.82;436214;1248;100604;-41
2024/04/19 18:34:53;;;;;;;22.50;13.50;;;;;;;6.09;72.84;97375.48;436359;1247;110768;-40
2024/04/19 18:44:58;;;;;;;17.60;10.60;;;;;;;6.20;72.93;97374.19;436335;1260;108594;-41
2024/04/19 18:55:03;;;;;;;17.90;11.00;;;;;;;6.27;73.15;97380.62;436218;1247;100559;-40
2024/04/19 19:05:13;;;;;;;20.40;11.90;;;;;;;6.25;73.33;97385.52;436408;1251;107619;-41
2024/04/19 19:15:22;;;;;;;13.00;8.90;;;;;;;6.19;74.02;97374.65;436412;1247;99693;-40
2024/04/19 19:25:27;;;;;;;14.30;7.80;;;;;;;6.25;75.07;97366.77;436476;1251;113315;-41
2024/04/19 19:35:32;;;;;;;13.80;8.60;;;;;;;6.30;75.17;97364.35;436433;1251;106703;-40
2024/04/19 19:45:36;;;;;;;17.50;10.20;;;;;;;6.28;75.68;97370.36;436381;1251;102720;-41
2024/04/19 19:55:41;;;;;;;14.50;9.60;;;;;;;6.14;76.03;97366.25;436377;1251;108281;-41
2024/04/19 20:05:46;;;;;;;13.10;9.60;;;;;;;6.07;76.22;97363.75;436397;1247;100591;-40
2024/04/19 20:15:50;;;;;;;16.30;10.10;;;;;;;6.17;76.57;97365.31;436363;1247;113506;-40
2024/04/19 20:25:55;;;;;;;15.10;10.90;;;;;;;6.23;76.74;97366.53;436401;1248;108741;-42
2024/04/19 20:36:05;;;;;;;22.10;13.80;;;;;;;6.23;77.25;97366.11;436484;1251;100570;-41
2024/04/19 20:46:10;;;;;;;15.10;10.30;;;;;;;6.04;77.33;97355.02;436389;1251;108731;-41
2024/04/19 20:56:17;;;;;;;14.10;8.60;;;;;;;5.87;77.60;97342.72;436452;1247;99829;-41
2024/04/19 21:06:22;;;;;;;13.20;7.60;;;;;;;5.84;77.98;97347.16;436402;1250;113112;-40
2024/04/19 21:16:27;;;;;;;12.50;8.00;;;;;;;5.89;78.21;97345.02;436391;1253;108523;-41
2024/04/19 21:26:31;;;;;;;11.50;8.50;;;;;;;5.90;78.42;97342.88;436409;1247;100569;-42
2024/04/19 21:36:39;;;;;;;19.80;11.50;;;;;;;5.96;78.93;97343.27;436494;1247;107645;-41
2024/04/19 21:46:44;;;;;;;22.70;12.30;;;;;;;5.97;79.06;97344.02;436214;1251;100662;-41
2024/04/19 21:56:49;;;;;;;17.70;12.40;;;;;;;5.83;79.06;97345.86;436421;1253;114101;-41
2024/04/19 22:06:53;;;;;;;17.20;11.40;;;;;;;5.75;79.14;97341.59;436199;1251;108560;-41
2024/04/19 22:16:59;;;;;;;12.20;9.10;;;;;;;5.79;79.26;97343.08;436298;1252;100671;-42
2024/04/19 22:27:05;;;;;;;14.80;8.00;;;;;;;5.83;79.69;97341.98;436329;1251;108578;-42
2024/04/19 22:37:09;;;;;;;8.90;7.00;;;;;;;5.88;79.94;97349.04;436495;1247;100581;-41
2024/04/19 22:47:14;;;;;;;12.10;7.60;;;;;;;5.84;80.09;97348.70;436572;1251;114126;-41
2024/04/19 22:57:18;;;;;;;9.70;7.60;;;;;;;5.71;80.30;97352.71;436364;1247;108096;-41
2024/04/19 23:07:23;;;;;;;10.10;6.10;;;;;;;5.68;80.43;97351.55;436313;1253;99881;-40
2024/04/19 23:17:28;;;;;;;7.30;5.40;;;;;;;5.71;80.70;97348.91;436433;1247;108570;-41
2024/04/19 23:27:33;;;;;;;6.00;5.30;;;;;;;5.84;80.94;97349.83;436284;1251;100789;-42
2024/04/19 23:37:38;;;;;;;7.80;5.10;;;;;;;5.87;81.10;97343.35;436429;1251;113141;-40
2024/04/19 23:47:42;;;;;;;9.70;7.00;;;;;;;5.89;81.34;97340.88;436486;1247;109537;-40
2024/04/19 23:57:47;;;;;;;10.00;7.30;;;;;;;5.80;81.49;97344.47;436169;1253;100559;-40
